sensor_id;sensor_type;location;lat;lon;timestamp;temperature;humidity
33865;DHT22;20159;51.072;13.526;2023-05-18T00:02:13;9.90;71.80
33865;DHT22;20159;51.072;13.526;2023-05-18T00:04:40;9.80;71.90
33865;DHT22;20159;51.072;13.526;2023-05-18T00:07:06;9.80;71.90
33865;DHT22;20159;51.072;13.526;2023-05-18T00:09:33;9.70;71.80
33865;DHT22;20159;51.072;13.526;2023-05-18T00:12:00;9.70;72.30
33865;DHT22;20159;51.072;13.526;2023-05-18T00:14:26;9.60;72.70
33865;DHT22;20159;51.072;13.526;2023-05-18T00:16:52;9.60;72.90
33865;DHT22;20159;51.072;13.526;2023-05-18T00:19:18;9.50;73.20
33865;DHT22;20159;51.072;13.526;2023-05-18T00:21:45;9.50;73.10
33865;DHT22;20159;51.072;13.526;2023-05-18T00:24:12;9.40;73.00
33865;DHT22;20159;51.072;13.526;2023-05-18T00:26:42;9.40;73.10
33865;DHT22;20159;51.072;13.526;2023-05-18T00:29:08;9.30;73.60
33865;DHT22;20159;51.072;13.526;2023-05-18T00:31:35;9.30;74.10
33865;DHT22;20159;51.072;13.526;2023-05-18T00:34:05;9.30;74.60
33865;DHT22;20159;51.072;13.526;2023-05-18T00:36:31;9.20;74.20
33865;DHT22;20159;51.072;13.526;2023-05-18T00:38:57;9.10;74.30
33865;DHT22;20159;51.072;13.526;2023-05-18T00:41:24;9.10;74.40
33865;DHT22;20159;51.072;13.526;2023-05-18T00:43:51;9.00;74.70
33865;DHT22;20159;51.072;13.526;2023-05-18T00:46:16;9.00;74.70
33865;DHT22;20159;51.072;13.526;2023-05-18T00:48:42;8.90;74.90
33865;DHT22;20159;51.072;13.526;2023-05-18T00:51:08;9.00;75.60
33865;DHT22;20159;51.072;13.526;2023-05-18T00:53:35;8.90;75.40
33865;DHT22;20159;51.072;13.526;2023-05-18T00:56:02;8.90;75.60
33865;DHT22;20159;51.072;13.526;2023-05-18T00:58:28;8.80;75.50
33865;DHT22;20159;51.072;13.526;2023-05-18T01:00:53;8.80;76.00
33865;DHT22;20159;51.072;13.526;2023-05-18T01:03:19;8.70;76.40
33865;DHT22;20159;51.072;13.526;2023-05-18T01:05:46;8.70;76.80
33865;DHT22;20159;51.072;13.526;2023-05-18T01:08:23;8.70;77.30
33865;DHT22;20159;51.072;13.526;2023-05-18T01:10:53;8.60;77.10
33865;DHT22;20159;51.072;13.526;2023-05-18T01:13:28;8.60;77.30
33865;DHT22;20159;51.072;13.526;2023-05-18T01:15:56;8.50;77.60
33865;DHT22;20159;51.072;13.526;2023-05-18T01:18:59;8.50;77.30
33865;DHT22;20159;51.072;13.526;2023-05-18T01:24:35;8.30;78.30
33865;DHT22;20159;51.072;13.526;2023-05-18T01:27:05;8.30;77.50
33865;DHT22;20159;51.072;13.526;2023-05-18T01:29:32;8.30;78.20
33865;DHT22;20159;51.072;13.526;2023-05-18T01:31:57;8.20;78.30
33865;DHT22;20159;51.072;13.526;2023-05-18T01:34:23;8.20;78.60
33865;DHT22;20159;51.072;13.526;2023-05-18T01:36:48;8.20;78.90
33865;DHT22;20159;51.072;13.526;2023-05-18T01:39:14;8.10;79.20
33865;DHT22;20159;51.072;13.526;2023-05-18T01:41:53;8.10;79.40
33865;DHT22;20159;51.072;13.526;2023-05-18T01:44:27;8.00;79.80
33865;DHT22;20159;51.072;13.526;2023-05-18T01:47:02;8.00;80.10
33865;DHT22;20159;51.072;13.526;2023-05-18T01:52:22;7.90;79.80
33865;DHT22;20159;51.072;13.526;2023-05-18T01:54:53;7.80;79.60
33865;DHT22;20159;51.072;13.526;2023-05-18T01:57:21;7.80;79.90
33865;DHT22;20159;51.072;13.526;2023-05-18T01:59:48;7.70;79.90
33865;DHT22;20159;51.072;13.526;2023-05-18T02:02:15;7.70;80.30
33865;DHT22;20159;51.072;13.526;2023-05-18T02:04:41;7.60;80.40
33865;DHT22;20159;51.072;13.526;2023-05-18T02:07:07;7.60;80.70
33865;DHT22;20159;51.072;13.526;2023-05-18T02:09:32;7.60;80.90
33865;DHT22;20159;51.072;13.526;2023-05-18T02:11:58;7.50;81.00
33865;DHT22;20159;51.072;13.526;2023-05-18T02:14:23;7.50;81.30
33865;DHT22;20159;51.072;13.526;2023-05-18T02:16:49;7.40;81.20
33865;DHT22;20159;51.072;13.526;2023-05-18T02:19:20;7.40;81.10
33865;DHT22;20159;51.072;13.526;2023-05-18T02:21:46;7.30;80.90
33865;DHT22;20159;51.072;13.526;2023-05-18T02:24:12;7.30;80.90
33865;DHT22;20159;51.072;13.526;2023-05-18T02:26:38;7.20;80.90
33865;DHT22;20159;51.072;13.526;2023-05-18T02:29:04;7.20;81.20
33865;DHT22;20159;51.072;13.526;2023-05-18T02:31:30;7.20;81.80
33865;DHT22;20159;51.072;13.526;2023-05-18T02:33:56;7.10;82.00
33865;DHT22;20159;51.072;13.526;2023-05-18T02:36:22;7.10;82.00
33865;DHT22;20159;51.072;13.526;2023-05-18T02:38:48;7.10;81.80
33865;DHT22;20159;51.072;13.526;2023-05-18T02:41:14;7.00;81.60
33865;DHT22;20159;51.072;13.526;2023-05-18T02:43:39;7.00;81.60
33865;DHT22;20159;51.072;13.526;2023-05-18T02:46:05;6.90;81.30
33865;DHT22;20159;51.072;13.526;2023-05-18T02:48:30;6.90;81.40
33865;DHT22;20159;51.072;13.526;2023-05-18T02:50:56;6.90;81.60
33865;DHT22;20159;51.072;13.526;2023-05-18T02:53:23;6.80;81.80
33865;DHT22;20159;51.072;13.526;2023-05-18T02:55:48;6.80;82.20
33865;DHT22;20159;51.072;13.526;2023-05-18T02:58:14;6.80;82.30
33865;DHT22;20159;51.072;13.526;2023-05-18T03:00:40;6.70;82.60
33865;DHT22;20159;51.072;13.526;2023-05-18T03:03:06;6.70;82.90
33865;DHT22;20159;51.072;13.526;2023-05-18T03:05:37;6.60;82.70
33865;DHT22;20159;51.072;13.526;2023-05-18T03:08:03;6.60;83.00
33865;DHT22;20159;51.072;13.526;2023-05-18T03:10:29;6.60;83.10
33865;DHT22;20159;51.072;13.526;2023-05-18T03:12:54;6.50;83.00
33865;DHT22;20159;51.072;13.526;2023-05-18T03:15:20;6.50;83.10
33865;DHT22;20159;51.072;13.526;2023-05-18T03:17:46;6.40;83.00
33865;DHT22;20159;51.072;13.526;2023-05-18T03:20:11;4.50;82.10
33865;DHT22;20159;51.072;13.526;2023-05-18T03:22:39;6.40;83.50
33865;DHT22;20159;51.072;13.526;2023-05-18T03:25:06;4.20;82.80
33865;DHT22;20159;51.072;13.526;2023-05-18T03:27:32;6.30;84.20
33865;DHT22;20159;51.072;13.526;2023-05-18T03:29:58;6.30;84.10
33865;DHT22;20159;51.072;13.526;2023-05-18T03:32:23;6.30;84.10
33865;DHT22;20159;51.072;13.526;2023-05-18T03:34:50;6.30;84.00
33865;DHT22;20159;51.072;13.526;2023-05-18T03:37:17;6.20;83.80
33865;DHT22;20159;51.072;13.526;2023-05-18T03:39:42;6.30;83.80
33865;DHT22;20159;51.072;13.526;2023-05-18T03:42:08;6.20;84.40
33865;DHT22;20159;51.072;13.526;2023-05-18T03:44:33;6.20;84.40
33865;DHT22;20159;51.072;13.526;2023-05-18T03:46:59;6.20;84.90
33865;DHT22;20159;51.072;13.526;2023-05-18T03:49:25;6.20;85.30
33865;DHT22;20159;51.072;13.526;2023-05-18T03:51:50;6.20;85.20
33865;DHT22;20159;51.072;13.526;2023-05-18T03:54:18;6.20;85.10
33865;DHT22;20159;51.072;13.526;2023-05-18T03:56:45;6.20;85.10
33865;DHT22;20159;51.072;13.526;2023-05-18T03:59:11;6.10;85.20
33865;DHT22;20159;51.072;13.526;2023-05-18T04:01:36;6.10;85.10
33865;DHT22;20159;51.072;13.526;2023-05-18T04:04:02;6.20;85.30
33865;DHT22;20159;51.072;13.526;2023-05-18T04:06:28;6.20;85.40
33865;DHT22;20159;51.072;13.526;2023-05-18T04:08:54;6.20;85.80
33865;DHT22;20159;51.072;13.526;2023-05-18T04:11:20;6.20;86.20
33865;DHT22;20159;51.072;13.526;2023-05-18T04:13:46;6.30;86.80
33865;DHT22;20159;51.072;13.526;2023-05-18T04:16:12;6.30;87.00
33865;DHT22;20159;51.072;13.526;2023-05-18T04:18:41;6.40;87.20
33865;DHT22;20159;51.072;13.526;2023-05-18T04:21:07;6.50;87.90
33865;DHT22;20159;51.072;13.526;2023-05-18T04:23:33;6.60;88.00
33865;DHT22;20159;51.072;13.526;2023-05-18T04:26:04;6.70;88.20
33865;DHT22;20159;51.072;13.526;2023-05-18T04:28:30;6.80;88.20
33865;DHT22;20159;51.072;13.526;2023-05-18T04:30:56;6.90;88.20
33865;DHT22;20159;51.072;13.526;2023-05-18T04:33:23;7.00;88.40
33865;DHT22;20159;51.072;13.526;2023-05-18T04:35:50;7.10;88.50
33865;DHT22;20159;51.072;13.526;2023-05-18T04:38:19;7.20;88.60
33865;DHT22;20159;51.072;13.526;2023-05-18T04:40:48;7.40;88.60
33865;DHT22;20159;51.072;13.526;2023-05-18T04:43:15;7.60;88.50
33865;DHT22;20159;51.072;13.526;2023-05-18T04:45:41;7.70;88.40
33865;DHT22;20159;51.072;13.526;2023-05-18T04:48:10;7.80;88.90
33865;DHT22;20159;51.072;13.526;2023-05-18T04:50:36;8.00;89.40
33865;DHT22;20159;51.072;13.526;2023-05-18T04:53:01;8.30;89.90
33865;DHT22;20159;51.072;13.526;2023-05-18T04:55:28;8.60;89.70
33865;DHT22;20159;51.072;13.526;2023-05-18T04:57:55;8.90;89.20
33865;DHT22;20159;51.072;13.526;2023-05-18T05:00:22;11.00;89.80
33865;DHT22;20159;51.072;13.526;2023-05-18T05:02:49;9.60;88.80
33865;DHT22;20159;51.072;13.526;2023-05-18T05:05:14;9.90;88.30
33865;DHT22;20159;51.072;13.526;2023-05-18T05:07:40;10.30;88.00
33865;DHT22;20159;51.072;13.526;2023-05-18T05:10:06;10.70;87.50
33865;DHT22;20159;51.072;13.526;2023-05-18T05:12:31;11.10;86.90
33865;DHT22;20159;51.072;13.526;2023-05-18T05:14:57;11.60;85.70
33865;DHT22;20159;51.072;13.526;2023-05-18T05:17:23;12.00;84.30
33865;DHT22;20159;51.072;13.526;2023-05-18T05:19:49;12.50;84.20
33865;DHT22;20159;51.072;13.526;2023-05-18T05:22:14;12.90;83.20
33865;DHT22;20159;51.072;13.526;2023-05-18T05:24:42;13.30;82.50
33865;DHT22;20159;51.072;13.526;2023-05-18T05:27:07;13.80;81.80
33865;DHT22;20159;51.072;13.526;2023-05-18T05:29:33;14.20;78.80
33865;DHT22;20159;51.072;13.526;2023-05-18T05:31:58;14.70;78.00
33865;DHT22;20159;51.072;13.526;2023-05-18T05:34:24;15.10;77.10
33865;DHT22;20159;51.072;13.526;2023-05-18T05:36:49;15.50;76.70
33865;DHT22;20159;51.072;13.526;2023-05-18T05:39:15;16.00;74.40
33865;DHT22;20159;51.072;13.526;2023-05-18T05:41:40;16.40;73.30
33865;DHT22;20159;51.072;13.526;2023-05-18T05:44:06;16.70;72.50
33865;DHT22;20159;51.072;13.526;2023-05-18T05:46:31;17.10;70.80
33865;DHT22;20159;51.072;13.526;2023-05-18T05:48:57;18.00;70.40
33865;DHT22;20159;51.072;13.526;2023-05-18T05:51:22;17.90;69.10
33865;DHT22;20159;51.072;13.526;2023-05-18T05:53:48;18.10;68.10
33865;DHT22;20159;51.072;13.526;2023-05-18T05:56:14;18.50;67.40
33865;DHT22;20159;51.072;13.526;2023-05-18T05:58:40;18.80;66.60
33865;DHT22;20159;51.072;13.526;2023-05-18T06:01:09;19.10;66.00
33865;DHT22;20159;51.072;13.526;2023-05-18T06:03:38;19.40;63.70
33865;DHT22;20159;51.072;13.526;2023-05-18T06:06:09;19.70;63.00
33865;DHT22;20159;51.072;13.526;2023-05-18T06:08:35;19.90;62.30
33865;DHT22;20159;51.072;13.526;2023-05-18T06:11:01;20.20;60.90
33865;DHT22;20159;51.072;13.526;2023-05-18T06:13:26;20.40;59.70
33865;DHT22;20159;51.072;13.526;2023-05-18T06:15:52;20.60;58.70
33865;DHT22;20159;51.072;13.526;2023-05-18T06:18:17;20.80;57.50
33865;DHT22;20159;51.072;13.526;2023-05-18T06:20:43;20.90;56.60
33865;DHT22;20159;51.072;13.526;2023-05-18T06:23:09;21.00;55.70
33865;DHT22;20159;51.072;13.526;2023-05-18T06:25:34;21.10;55.00
33865;DHT22;20159;51.072;13.526;2023-05-18T06:28:00;19.40;52.80
33865;DHT22;20159;51.072;13.526;2023-05-18T06:30:25;21.20;54.10
33865;DHT22;20159;51.072;13.526;2023-05-18T06:32:51;21.30;54.10
33865;DHT22;20159;51.072;13.526;2023-05-18T06:35:16;21.50;52.40
33865;DHT22;20159;51.072;13.526;2023-05-18T06:37:42;21.60;51.90
33865;DHT22;20159;51.072;13.526;2023-05-18T06:40:08;21.70;51.80
33865;DHT22;20159;51.072;13.526;2023-05-18T06:42:34;21.80;52.20
33865;DHT22;20159;51.072;13.526;2023-05-18T06:45:01;21.90;51.50
33865;DHT22;20159;51.072;13.526;2023-05-18T06:47:26;22.00;50.60
33865;DHT22;20159;51.072;13.526;2023-05-18T06:49:52;22.20;49.80
33865;DHT22;20159;51.072;13.526;2023-05-18T06:52:17;22.30;49.40
33865;DHT22;20159;51.072;13.526;2023-05-18T06:54:43;22.30;48.60
33865;DHT22;20159;51.072;13.526;2023-05-18T06:57:08;22.40;48.60
33865;DHT22;20159;51.072;13.526;2023-05-18T06:59:34;22.50;47.80
33865;DHT22;20159;51.072;13.526;2023-05-18T07:01:59;22.60;48.80
33865;DHT22;20159;51.072;13.526;2023-05-18T07:04:25;22.30;48.30
33865;DHT22;20159;51.072;13.526;2023-05-18T07:06:51;22.90;47.90
33865;DHT22;20159;51.072;13.526;2023-05-18T07:09:20;23.10;47.90
33865;DHT22;20159;51.072;13.526;2023-05-18T07:11:46;23.30;46.70
33865;DHT22;20159;51.072;13.526;2023-05-18T07:14:12;23.40;45.60
33865;DHT22;20159;51.072;13.526;2023-05-18T07:16:37;23.40;45.60
33865;DHT22;20159;51.072;13.526;2023-05-18T07:19:03;23.40;45.20
33865;DHT22;20159;51.072;13.526;2023-05-18T07:21:29;23.30;44.60
33865;DHT22;20159;51.072;13.526;2023-05-18T07:23:55;23.20;44.30
33865;DHT22;20159;51.072;13.526;2023-05-18T07:26:21;23.10;43.70
33865;DHT22;20159;51.072;13.526;2023-05-18T07:28:47;22.90;43.70
33865;DHT22;20159;51.072;13.526;2023-05-18T07:31:13;22.70;43.60
33865;DHT22;20159;51.072;13.526;2023-05-18T07:33:41;22.50;43.80
33865;DHT22;20159;51.072;13.526;2023-05-18T07:36:06;22.50;44.40
33865;DHT22;20159;51.072;13.526;2023-05-18T07:38:33;22.50;44.70
33865;DHT22;20159;51.072;13.526;2023-05-18T07:40:58;22.50;44.70
33865;DHT22;20159;51.072;13.526;2023-05-18T07:43:24;22.70;45.00
33865;DHT22;20159;51.072;13.526;2023-05-18T07:45:50;22.90;45.10
33865;DHT22;20159;51.072;13.526;2023-05-18T07:48:16;23.10;43.90
33865;DHT22;20159;51.072;13.526;2023-05-18T07:50:41;23.30;43.70
33865;DHT22;20159;51.072;13.526;2023-05-18T07:53:07;23.40;42.70
33865;DHT22;20159;51.072;13.526;2023-05-18T07:55:33;23.40;42.20
33865;DHT22;20159;51.072;13.526;2023-05-18T07:57:58;23.40;42.70
33865;DHT22;20159;51.072;13.526;2023-05-18T08:00:25;23.50;42.10
33865;DHT22;20159;51.072;13.526;2023-05-18T08:02:51;23.60;42.20
33865;DHT22;20159;51.072;13.526;2023-05-18T08:05:16;23.70;42.10
33865;DHT22;20159;51.072;13.526;2023-05-18T08:07:42;23.80;42.40
33865;DHT22;20159;51.072;13.526;2023-05-18T08:10:08;23.90;42.00
33865;DHT22;20159;51.072;13.526;2023-05-18T08:12:34;23.90;41.80
33865;DHT22;20159;51.072;13.526;2023-05-18T08:15:00;24.00;41.80
33865;DHT22;20159;51.072;13.526;2023-05-18T08:17:25;24.00;41.10
33865;DHT22;20159;51.072;13.526;2023-05-18T08:19:51;24.10;41.80
33865;DHT22;20159;51.072;13.526;2023-05-18T08:22:18;24.20;41.00
33865;DHT22;20159;51.072;13.526;2023-05-18T08:24:43;24.20;41.00
33865;DHT22;20159;51.072;13.526;2023-05-18T08:27:09;24.40;40.70
33865;DHT22;20159;51.072;13.526;2023-05-18T08:29:35;24.50;40.60
33865;DHT22;20159;51.072;13.526;2023-05-18T08:32:01;24.60;40.20
33865;DHT22;20159;51.072;13.526;2023-05-18T08:34:26;24.70;40.10
33865;DHT22;20159;51.072;13.526;2023-05-18T08:36:54;24.60;39.90
33865;DHT22;20159;51.072;13.526;2023-05-18T08:39:19;24.60;39.80
33865;DHT22;20159;51.072;13.526;2023-05-18T08:42:01;24.50;39.80
33865;DHT22;20159;51.072;13.526;2023-05-18T08:44:40;24.50;39.20
33865;DHT22;20159;51.072;13.526;2023-05-18T08:47:10;24.40;38.60
33865;DHT22;20159;51.072;13.526;2023-05-18T08:49:36;24.40;39.00
33865;DHT22;20159;51.072;13.526;2023-05-18T08:52:03;24.20;38.70
33865;DHT22;20159;51.072;13.526;2023-05-18T08:54:30;24.10;38.70
33865;DHT22;20159;51.072;13.526;2023-05-18T08:56:56;23.90;38.70
33865;DHT22;20159;51.072;13.526;2023-05-18T08:59:24;23.70;38.80
33865;DHT22;20159;51.072;13.526;2023-05-18T09:01:51;23.60;39.30
33865;DHT22;20159;51.072;13.526;2023-05-18T09:04:18;23.40;39.10
33865;DHT22;20159;51.072;13.526;2023-05-18T09:06:46;23.20;39.20
33865;DHT22;20159;51.072;13.526;2023-05-18T09:09:12;23.10;39.50
33865;DHT22;20159;51.072;13.526;2023-05-18T09:11:38;22.90;39.20
33865;DHT22;20159;51.072;13.526;2023-05-18T09:14:04;22.80;39.70
33865;DHT22;20159;51.072;13.526;2023-05-18T09:16:30;22.70;39.90
33865;DHT22;20159;51.072;13.526;2023-05-18T09:18:55;22.60;39.90
33865;DHT22;20159;51.072;13.526;2023-05-18T09:21:21;22.40;39.90
33865;DHT22;20159;51.072;13.526;2023-05-18T09:23:46;22.40;39.80
33865;DHT22;20159;51.072;13.526;2023-05-18T09:26:12;22.30;39.90
33865;DHT22;20159;51.072;13.526;2023-05-18T09:28:39;22.20;40.50
33865;DHT22;20159;51.072;13.526;2023-05-18T09:31:07;22.20;40.60
33865;DHT22;20159;51.072;13.526;2023-05-18T09:33:36;22.20;40.70
33865;DHT22;20159;51.072;13.526;2023-05-18T09:36:08;22.20;40.60
33865;DHT22;20159;51.072;13.526;2023-05-18T09:38:38;22.30;40.30
33865;DHT22;20159;51.072;13.526;2023-05-18T09:41:12;22.30;41.00
33865;DHT22;20159;51.072;13.526;2023-05-18T09:43:38;22.40;40.60
33865;DHT22;20159;51.072;13.526;2023-05-18T09:46:09;22.50;40.40
33865;DHT22;20159;51.072;13.526;2023-05-18T09:48:36;22.60;40.60
33865;DHT22;20159;51.072;13.526;2023-05-18T09:51:05;22.70;40.10
33865;DHT22;20159;51.072;13.526;2023-05-18T09:53:33;22.70;39.40
33865;DHT22;20159;51.072;13.526;2023-05-18T09:56:03;22.70;40.00
33865;DHT22;20159;51.072;13.526;2023-05-18T09:58:31;22.70;39.70
33865;DHT22;20159;51.072;13.526;2023-05-18T10:00:59;22.70;39.70
33865;DHT22;20159;51.072;13.526;2023-05-18T10:03:31;22.60;39.70
33865;DHT22;20159;51.072;13.526;2023-05-18T10:06:02;22.50;39.70
33865;DHT22;20159;51.072;13.526;2023-05-18T10:08:27;22.40;39.70
33865;DHT22;20159;51.072;13.526;2023-05-18T10:10:53;22.30;40.30
33865;DHT22;20159;51.072;13.526;2023-05-18T10:13:18;22.30;40.30
33865;DHT22;20159;51.072;13.526;2023-05-18T10:15:53;22.20;40.10
33865;DHT22;20159;51.072;13.526;2023-05-18T10:18:31;22.10;39.70
33865;DHT22;20159;51.072;13.526;2023-05-18T10:20:59;22.10;40.00
33865;DHT22;20159;51.072;13.526;2023-05-18T10:23:35;22.00;40.10
33865;DHT22;20159;51.072;13.526;2023-05-18T10:26:04;22.00;40.30
33865;DHT22;20159;51.072;13.526;2023-05-18T10:28:48;21.90;40.40
33865;DHT22;20159;51.072;13.526;2023-05-18T10:31:15;21.90;40.30
33865;DHT22;20159;51.072;13.526;2023-05-18T10:33:41;21.90;40.40
33865;DHT22;20159;51.072;13.526;2023-05-18T10:36:09;21.80;40.30
33865;DHT22;20159;51.072;13.526;2023-05-18T10:38:36;21.90;40.60
33865;DHT22;20159;51.072;13.526;2023-05-18T10:41:04;21.90;40.10
33865;DHT22;20159;51.072;13.526;2023-05-18T10:43:32;22.00;40.50
33865;DHT22;20159;51.072;13.526;2023-05-18T10:45:59;22.10;41.10
33865;DHT22;20159;51.072;13.526;2023-05-18T10:48:26;22.30;40.20
33865;DHT22;20159;51.072;13.526;2023-05-18T10:50:53;22.50;40.20
33865;DHT22;20159;51.072;13.526;2023-05-18T10:53:26;22.70;39.60
33865;DHT22;20159;51.072;13.526;2023-05-18T10:55:54;22.80;39.70
33865;DHT22;20159;51.072;13.526;2023-05-18T10:58:22;23.00;40.20
33865;DHT22;20159;51.072;13.526;2023-05-18T11:00:51;23.10;39.50
33865;DHT22;20159;51.072;13.526;2023-05-18T11:03:18;23.20;39.70
33865;DHT22;20159;51.072;13.526;2023-05-18T11:05:48;23.20;38.70
33865;DHT22;20159;51.072;13.526;2023-05-18T11:08:24;23.20;38.60
33865;DHT22;20159;51.072;13.526;2023-05-18T11:11:01;23.20;38.10
33865;DHT22;20159;51.072;13.526;2023-05-18T11:13:33;23.40;38.50
33865;DHT22;20159;51.072;13.526;2023-05-18T11:18:34;23.50;38.60
33865;DHT22;20159;51.072;13.526;2023-05-18T11:21:00;23.60;38.30
33865;DHT22;20159;51.072;13.526;2023-05-18T11:23:29;23.60;38.90
33865;DHT22;20159;51.072;13.526;2023-05-18T11:25:59;23.80;38.80
33865;DHT22;20159;51.072;13.526;2023-05-18T11:28:27;23.80;38.60
33865;DHT22;20159;51.072;13.526;2023-05-18T11:30:53;24.00;38.70
33865;DHT22;20159;51.072;13.526;2023-05-18T11:33:25;24.10;38.20
33865;DHT22;20159;51.072;13.526;2023-05-18T11:35:59;24.10;37.90
33865;DHT22;20159;51.072;13.526;2023-05-18T11:38:54;24.20;37.50
33865;DHT22;20159;51.072;13.526;2023-05-18T11:41:37;24.20;38.00
33865;DHT22;20159;51.072;13.526;2023-05-18T11:44:17;24.20;37.40
33865;DHT22;20159;51.072;13.526;2023-05-18T11:49:45;24.10;37.50
33865;DHT22;20159;51.072;13.526;2023-05-18T11:54:39;24.20;37.40
33865;DHT22;20159;51.072;13.526;2023-05-18T11:57:06;24.10;37.10
33865;DHT22;20159;51.072;13.526;2023-05-18T11:59:35;24.10;37.40
33865;DHT22;20159;51.072;13.526;2023-05-18T12:02:01;24.10;37.80
33865;DHT22;20159;51.072;13.526;2023-05-18T12:04:28;24.20;37.20
33865;DHT22;20159;51.072;13.526;2023-05-18T12:06:55;24.20;37.60
33865;DHT22;20159;51.072;13.526;2023-05-18T12:09:21;24.30;37.70
33865;DHT22;20159;51.072;13.526;2023-05-18T12:11:47;24.30;37.70
33865;DHT22;20159;51.072;13.526;2023-05-18T12:14:13;24.40;37.90
33865;DHT22;20159;51.072;13.526;2023-05-18T12:16:39;24.40;37.60
33865;DHT22;20159;51.072;13.526;2023-05-18T12:19:08;24.50;37.10
33865;DHT22;20159;51.072;13.526;2023-05-18T12:21:36;24.50;37.00
33865;DHT22;20159;51.072;13.526;2023-05-18T12:24:02;24.50;36.50
33865;DHT22;20159;51.072;13.526;2023-05-18T12:26:29;24.50;36.90
33865;DHT22;20159;51.072;13.526;2023-05-18T12:28:55;24.50;36.60
33865;DHT22;20159;51.072;13.526;2023-05-18T12:31:21;24.50;36.70
33865;DHT22;20159;51.072;13.526;2023-05-18T12:33:46;24.40;37.10
33865;DHT22;20159;51.072;13.526;2023-05-18T12:36:15;24.40;37.00
33865;DHT22;20159;51.072;13.526;2023-05-18T12:38:41;24.30;37.40
33865;DHT22;20159;51.072;13.526;2023-05-18T12:41:06;24.30;37.40
33865;DHT22;20159;51.072;13.526;2023-05-18T12:43:33;24.30;37.30
33865;DHT22;20159;51.072;13.526;2023-05-18T12:46:03;24.30;37.20
33865;DHT22;20159;51.072;13.526;2023-05-18T12:48:35;24.30;36.80
33865;DHT22;20159;51.072;13.526;2023-05-18T12:51:01;24.30;37.00
33865;DHT22;20159;51.072;13.526;2023-05-18T12:53:41;24.20;37.40
33865;DHT22;20159;51.072;13.526;2023-05-18T12:56:07;24.20;37.00
33865;DHT22;20159;51.072;13.526;2023-05-18T12:58:36;24.10;37.50
33865;DHT22;20159;51.072;13.526;2023-05-18T13:01:09;24.00;37.20
33865;DHT22;20159;51.072;13.526;2023-05-18T13:03:38;24.00;37.20
33865;DHT22;20159;51.072;13.526;2023-05-18T13:06:07;23.80;38.00
33865;DHT22;20159;51.072;13.526;2023-05-18T13:08:34;23.70;37.30
33865;DHT22;20159;51.072;13.526;2023-05-18T13:11:02;23.60;37.80
33865;DHT22;20159;51.072;13.526;2023-05-18T13:13:28;23.60;37.80
33865;DHT22;20159;51.072;13.526;2023-05-18T13:15:53;23.50;37.30
33865;DHT22;20159;51.072;13.526;2023-05-18T13:18:19;23.40;37.90
33865;DHT22;20159;51.072;13.526;2023-05-18T13:20:47;23.30;37.40
33865;DHT22;20159;51.072;13.526;2023-05-18T13:23:17;23.20;37.60
33865;DHT22;20159;51.072;13.526;2023-05-18T13:25:42;23.10;38.10
33865;DHT22;20159;51.072;13.526;2023-05-18T13:28:10;23.00;38.30
33865;DHT22;20159;51.072;13.526;2023-05-18T13:30:36;23.00;39.10
33865;DHT22;20159;51.072;13.526;2023-05-18T13:33:02;23.00;38.40
33865;DHT22;20159;51.072;13.526;2023-05-18T13:35:28;22.90;38.30
33865;DHT22;20159;51.072;13.526;2023-05-18T13:37:53;23.00;38.60
33865;DHT22;20159;51.072;13.526;2023-05-18T13:40:20;22.90;37.90
33865;DHT22;20159;51.072;13.526;2023-05-18T13:42:46;22.90;38.00
33865;DHT22;20159;51.072;13.526;2023-05-18T13:45:13;22.90;37.90
33865;DHT22;20159;51.072;13.526;2023-05-18T13:47:39;22.90;38.20
33865;DHT22;20159;51.072;13.526;2023-05-18T13:50:05;22.90;39.00
33865;DHT22;20159;51.072;13.526;2023-05-18T13:52:31;22.90;39.00
33865;DHT22;20159;51.072;13.526;2023-05-18T13:54:57;23.10;38.80
33865;DHT22;20159;51.072;13.526;2023-05-18T13:57:22;23.20;38.20
33865;DHT22;20159;51.072;13.526;2023-05-18T13:59:53;23.40;38.20
33865;DHT22;20159;51.072;13.526;2023-05-18T14:02:19;23.50;37.90
33865;DHT22;20159;51.072;13.526;2023-05-18T14:04:44;23.70;38.10
33865;DHT22;20159;51.072;13.526;2023-05-18T14:07:10;23.90;37.80
33865;DHT22;20159;51.072;13.526;2023-05-18T14:09:36;24.10;37.60
33865;DHT22;20159;51.072;13.526;2023-05-18T14:12:02;24.40;37.30
33865;DHT22;20159;51.072;13.526;2023-05-18T14:14:29;24.60;37.00
33865;DHT22;20159;51.072;13.526;2023-05-18T14:16:55;24.80;36.90
33865;DHT22;20159;51.072;13.526;2023-05-18T14:19:20;24.90;36.90
33865;DHT22;20159;51.072;13.526;2023-05-18T14:21:46;25.10;37.00
33865;DHT22;20159;51.072;13.526;2023-05-18T14:24:11;25.20;36.30
33865;DHT22;20159;51.072;13.526;2023-05-18T14:26:39;25.20;35.80
33865;DHT22;20159;51.072;13.526;2023-05-18T14:29:05;25.20;35.80
33865;DHT22;20159;51.072;13.526;2023-05-18T14:31:30;25.10;35.90
33865;DHT22;20159;51.072;13.526;2023-05-18T14:33:56;25.00;36.00
33865;DHT22;20159;51.072;13.526;2023-05-18T14:36:21;25.00;36.10
33865;DHT22;20159;51.072;13.526;2023-05-18T14:38:47;24.90;36.10
33865;DHT22;20159;51.072;13.526;2023-05-18T14:41:12;24.90;36.40
33865;DHT22;20159;51.072;13.526;2023-05-18T14:43:38;24.90;36.60
33865;DHT22;20159;51.072;13.526;2023-05-18T14:46:03;24.90;36.40
33865;DHT22;20159;51.072;13.526;2023-05-18T14:48:29;24.90;36.20
33865;DHT22;20159;51.072;13.526;2023-05-18T14:50:54;24.90;36.10
33865;DHT22;20159;51.072;13.526;2023-05-18T14:53:20;24.70;36.00
33865;DHT22;20159;51.072;13.526;2023-05-18T14:55:45;24.60;36.20
33865;DHT22;20159;51.072;13.526;2023-05-18T14:58:11;24.40;36.40
33865;DHT22;20159;51.072;13.526;2023-05-18T15:00:39;24.40;36.70
33865;DHT22;20159;51.072;13.526;2023-05-18T15:03:05;24.30;36.50
33865;DHT22;20159;51.072;13.526;2023-05-18T15:05:31;24.20;36.70
33865;DHT22;20159;51.072;13.526;2023-05-18T15:07:56;24.20;36.60
33865;DHT22;20159;51.072;13.526;2023-05-18T15:10:22;24.20;36.40
33865;DHT22;20159;51.072;13.526;2023-05-18T15:12:48;24.30;36.40
33865;DHT22;20159;51.072;13.526;2023-05-18T15:15:13;24.30;36.40
33865;DHT22;20159;51.072;13.526;2023-05-18T15:17:39;24.30;36.30
33865;DHT22;20159;51.072;13.526;2023-05-18T15:20:05;24.30;36.10
33865;DHT22;20159;51.072;13.526;2023-05-18T15:22:31;24.20;36.30
33865;DHT22;20159;51.072;13.526;2023-05-18T15:25:03;24.20;36.70
33865;DHT22;20159;51.072;13.526;2023-05-18T15:27:30;24.10;36.30
33865;DHT22;20159;51.072;13.526;2023-05-18T15:29:55;24.00;36.50
33865;DHT22;20159;51.072;13.526;2023-05-18T15:32:21;23.90;36.40
33865;DHT22;20159;51.072;13.526;2023-05-18T15:34:46;23.80;36.80